createdAt,value
2019-05-30T00:01:41.638Z,2.90
2019-05-30T00:04:10.223Z,2.83
2019-05-30T00:06:38.805Z,2.98
2019-05-30T00:09:08.768Z,3.08
2019-05-30T00:11:37.301Z,4.00
2019-05-30T00:14:05.896Z,3.37
2019-05-30T00:16:36.042Z,3.67
2019-05-30T00:19:05.101Z,3.30
2019-05-30T00:21:34.627Z,2.83
2019-05-30T00:24:04.174Z,2.90
2019-05-30T00:26:33.326Z,4.62
2019-05-30T00:29:02.550Z,3.10
2019-05-30T00:31:31.178Z,3.02
2019-05-30T00:33:59.651Z,3.00
2019-05-30T00:36:28.198Z,3.30
2019-05-30T00:38:57.667Z,3.10
2019-05-30T00:41:26.320Z,2.80
2019-05-30T00:43:55.896Z,2.90
2019-05-30T00:46:24.615Z,3.00
2019-05-30T00:48:53.157Z,2.70
2019-05-30T00:51:21.716Z,3.20
2019-05-30T00:53:50.309Z,3.67
2019-05-30T00:56:18.851Z,3.27
2019-05-30T00:58:47.393Z,2.80
2019-05-30T01:01:15.880Z,3.02
2019-05-30T01:03:44.363Z,3.15
2019-05-30T01:06:12.921Z,3.00
2019-05-30T01:08:41.380Z,3.15
2019-05-30T01:11:09.902Z,3.10
2019-05-30T01:13:38.430Z,3.08
2019-05-30T01:16:07.357Z,3.10
2019-05-30T01:18:35.987Z,3.10
2019-05-30T01:21:05.381Z,2.90
2019-05-30T01:23:34.022Z,2.90
2019-05-30T01:26:03.436Z,2.72
2019-05-30T01:28:32.158Z,2.95
2019-05-30T01:31:05.573Z,2.92
2019-05-30T01:33:30.887Z,2.98
2019-05-30T01:35:59.732Z,2.90
2019-05-30T01:38:28.346Z,3.00
2019-05-30T01:40:57.689Z,3.40
2019-05-30T01:43:26.394Z,3.50
2019-05-30T01:45:54.995Z,3.43
2019-05-30T01:48:23.538Z,2.92
2019-05-30T01:50:52.089Z,3.50
2019-05-30T01:53:20.651Z,3.25
2019-05-30T01:55:50.118Z,3.12
2019-05-30T01:58:18.631Z,3.20
2019-05-30T02:00:47.097Z,3.00
2019-05-30T02:03:15.653Z,3.00
2019-05-30T02:05:44.226Z,2.85
2019-05-30T02:08:12.806Z,3.12
2019-05-30T02:10:41.570Z,2.62
2019-05-30T02:13:10.098Z,3.20
2019-05-30T02:15:38.610Z,3.00
2019-05-30T02:18:07.700Z,3.20
2019-05-30T02:20:36.376Z,3.27
2019-05-30T02:23:06.132Z,3.12
2019-05-30T02:25:35.151Z,3.30
2019-05-30T02:28:04.072Z,3.33
2019-05-30T02:30:32.694Z,3.42
2019-05-30T02:33:02.807Z,3.12
2019-05-30T02:35:31.794Z,3.45
2019-05-30T02:38:00.958Z,3.70
2019-05-30T02:40:30.974Z,3.10
2019-05-30T02:43:01.037Z,3.08
2019-05-30T02:45:29.887Z,3.50
2019-05-30T02:47:58.435Z,3.30
2019-05-30T02:50:26.978Z,3.47
2019-05-30T02:52:55.514Z,3.17
2019-05-30T02:55:24.059Z,3.40
2019-05-30T02:57:55.129Z,3.27
2019-05-30T03:00:31.461Z,3.35
2019-05-30T03:03:01.764Z,3.58
2019-05-30T03:05:32.943Z,3.22
2019-05-30T03:08:02.577Z,3.50
2019-05-30T03:10:31.974Z,3.50
2019-05-30T03:13:01.867Z,3.70
2019-05-30T03:15:30.715Z,3.60
2019-05-30T03:17:59.323Z,3.40
2019-05-30T03:20:28.038Z,3.60
2019-05-30T03:22:56.570Z,3.45
2019-05-30T03:25:25.140Z,3.60
2019-05-30T03:27:53.699Z,4.20
2019-05-30T03:30:27.877Z,3.70
2019-05-30T03:33:15.660Z,3.98
2019-05-30T03:35:29.286Z,4.20
2019-05-30T03:37:53.626Z,3.90
2019-05-30T03:40:23.528Z,3.85
2019-05-30T03:42:52.551Z,3.70
2019-05-30T03:45:21.098Z,3.52
2019-05-30T03:47:51.102Z,3.90
2019-05-30T03:50:21.353Z,3.80
2019-05-30T03:52:50.202Z,3.95
2019-05-30T03:55:20.012Z,3.85
2019-05-30T03:57:51.248Z,3.95
2019-05-30T04:00:38.856Z,4.10
2019-05-30T04:03:15.563Z,3.90
2019-05-30T04:05:46.101Z,4.17
2019-05-30T04:08:16.209Z,4.00
2019-05-30T04:10:46.421Z,4.08
2019-05-30T04:13:34.105Z,3.90
2019-05-30T04:16:02.683Z,4.12
2019-05-30T04:18:31.206Z,4.15
2019-05-30T04:20:59.837Z,3.90
2019-05-30T04:23:28.674Z,3.93
2019-05-30T04:26:00.408Z,4.00
2019-05-30T04:28:27.399Z,3.90
2019-05-30T04:30:55.941Z,4.17
2019-05-30T04:33:32.767Z,4.45
2019-05-30T04:35:54.894Z,3.72
2019-05-30T04:38:23.332Z,4.40
2019-05-30T04:40:52.879Z,4.30
2019-05-30T04:43:21.483Z,4.33
2019-05-30T04:45:49.999Z,4.10
2019-05-30T04:48:20.939Z,4.35
2019-05-30T04:50:48.979Z,4.40
2019-05-30T04:53:18.438Z,4.40
2019-05-30T04:55:47.215Z,4.10
2019-05-30T04:58:17.927Z,4.60
2019-05-30T05:00:46.113Z,4.42
2019-05-30T05:03:15.461Z,4.30
2019-05-30T05:05:44.141Z,4.60
2019-05-30T05:08:13.689Z,4.40
2019-05-30T05:10:42.539Z,4.30
2019-05-30T05:13:12.219Z,4.57
2019-05-30T05:15:40.911Z,4.62
2019-05-30T05:18:09.611Z,4.45
2019-05-30T05:20:38.191Z,4.10
2019-05-30T05:23:06.741Z,4.33
2019-05-30T05:25:35.206Z,4.30
2019-05-30T05:28:03.831Z,4.87
2019-05-30T05:30:32.442Z,5.83
2019-05-30T05:33:00.941Z,6.08
2019-05-30T05:35:29.490Z,5.50
2019-05-30T05:37:58.124Z,5.80
2019-05-30T05:40:26.723Z,5.70
2019-05-30T05:42:55.202Z,6.00
2019-05-30T05:45:24.689Z,5.47
2019-05-30T05:47:53.513Z,5.10
2019-05-30T05:50:22.534Z,6.33
2019-05-30T05:52:51.305Z,6.08
2019-05-30T05:55:20.898Z,7.00
2019-05-30T05:57:49.623Z,7.05
2019-05-30T06:00:18.993Z,6.60
2019-05-30T06:02:47.726Z,6.67
2019-05-30T06:05:16.192Z,6.78
2019-05-30T06:07:44.857Z,7.15
2019-05-30T06:10:13.337Z,6.80
2019-05-30T06:12:41.926Z,7.70
2019-05-30T06:15:10.593Z,7.80
2019-05-30T06:17:39.158Z,7.33
2019-05-30T06:20:07.718Z,6.80
2019-05-30T06:22:36.281Z,6.62
2019-05-30T06:25:05.051Z,6.50
2019-05-30T06:27:33.550Z,6.17
2019-05-30T06:30:02.150Z,6.92
2019-05-30T06:32:30.713Z,7.10
2019-05-30T06:34:59.270Z,6.35
2019-05-30T06:37:27.835Z,6.08
2019-05-30T06:39:56.431Z,6.87
2019-05-30T06:42:25.783Z,6.90
2019-05-30T06:44:54.439Z,5.90
2019-05-30T06:47:24.301Z,5.97
2019-05-30T06:49:53.078Z,6.28
2019-05-30T06:52:22.889Z,6.03
2019-05-30T06:54:51.500Z,6.62
2019-05-30T06:57:21.107Z,6.90
2019-05-30T06:59:49.751Z,6.03
2019-05-30T07:02:18.404Z,5.67
2019-05-30T07:04:51.619Z,5.05
2019-05-30T07:07:17.529Z,5.40
2019-05-30T07:09:46.292Z,5.53
2019-05-30T07:12:15.860Z,5.53
2019-05-30T07:14:44.429Z,5.87
2019-05-30T07:17:12.950Z,6.00
2019-05-30T07:19:41.526Z,5.35
2019-05-30T07:22:10.103Z,5.87
2019-05-30T07:24:38.639Z,5.10
2019-05-30T07:27:07.109Z,5.30
2019-05-30T07:29:35.682Z,5.87
2019-05-30T07:32:04.318Z,4.78
2019-05-30T07:34:32.876Z,4.83
2019-05-30T07:37:01.761Z,4.50
2019-05-30T07:39:33.317Z,4.50
2019-05-30T07:42:06.213Z,4.50
2019-05-30T07:44:31.033Z,4.17
2019-05-30T07:46:59.594Z,4.40
2019-05-30T07:49:28.294Z,4.92
2019-05-30T07:51:57.033Z,5.25
2019-05-30T07:54:26.749Z,4.60
2019-05-30T07:56:55.649Z,4.37
2019-05-30T07:59:26.373Z,4.60
2019-05-30T08:01:55.007Z,4.90
2019-05-30T08:04:23.612Z,4.60
2019-05-30T08:06:53.248Z,4.90
2019-05-30T08:09:21.802Z,5.12
2019-05-30T08:11:50.407Z,5.40
2019-05-30T08:14:18.974Z,5.17
2019-05-30T08:16:47.519Z,4.70
2019-05-30T08:19:16.321Z,4.05
2019-05-30T08:21:44.854Z,5.78
2019-05-30T08:24:13.401Z,5.30
2019-05-30T08:26:42.021Z,4.80
2019-05-30T08:29:10.608Z,4.75
2019-05-30T08:31:39.170Z,5.28
2019-05-30T08:34:07.743Z,4.80
2019-05-30T08:36:37.111Z,4.87
2019-05-30T08:39:07.049Z,4.47
2019-05-30T08:41:35.753Z,3.85
2019-05-30T08:44:04.408Z,4.17
2019-05-30T08:46:33.725Z,3.85
2019-05-30T08:49:02.429Z,4.40
2019-05-30T08:51:31.870Z,4.47
2019-05-30T08:54:00.661Z,3.90
2019-05-30T08:56:30.309Z,4.03
2019-05-30T08:58:59.008Z,3.80
2019-05-30T09:01:27.650Z,3.85
2019-05-30T09:03:56.207Z,3.40
2019-05-30T09:06:24.841Z,3.40
2019-05-30T09:08:53.486Z,3.30
2019-05-30T09:11:22.054Z,3.47
2019-05-30T09:13:50.645Z,3.37
2019-05-30T09:16:19.305Z,3.30
2019-05-30T09:18:47.803Z,3.00
2019-05-30T09:21:16.449Z,3.80
2019-05-30T09:23:46.233Z,3.62
2019-05-30T09:26:15.057Z,3.50
2019-05-30T09:28:44.220Z,3.23
2019-05-30T09:31:12.938Z,3.22
2019-05-30T09:33:42.750Z,3.30
2019-05-30T09:36:13.482Z,3.50
2019-05-30T09:38:43.173Z,3.40
2019-05-30T09:41:12.159Z,3.55
2019-05-30T09:43:41.599Z,3.50
2019-05-30T09:46:11.003Z,3.37
2019-05-30T09:48:40.144Z,3.20
2019-05-30T09:51:10.132Z,3.15
2019-05-30T09:53:38.685Z,3.00
2019-05-30T09:56:07.243Z,3.12
2019-05-30T09:58:35.709Z,3.27
2019-05-30T10:01:04.550Z,3.50
2019-05-30T10:03:33.062Z,3.10
2019-05-30T10:06:01.628Z,3.03
2019-05-30T10:08:30.234Z,3.37
2019-05-30T10:10:58.827Z,3.08
2019-05-30T10:13:27.380Z,3.02
2019-05-30T10:15:56.727Z,2.90
2019-05-30T10:18:25.435Z,3.47
2019-05-30T10:20:54.047Z,3.60
2019-05-30T10:23:22.775Z,3.30
2019-05-30T10:25:51.369Z,3.00
2019-05-30T10:28:19.924Z,3.20
2019-05-30T10:30:53.643Z,3.87
2019-05-30T10:33:18.739Z,3.47
2019-05-30T10:35:47.879Z,3.40
2019-05-30T10:38:19.984Z,3.40
2019-05-30T10:40:50.378Z,3.20
2019-05-30T10:43:19.219Z,3.92
2019-05-30T10:45:48.220Z,3.70
2019-05-30T10:48:20.691Z,3.67
2019-05-30T10:50:48.517Z,3.33
2019-05-30T10:53:17.219Z,3.90
2019-05-30T10:55:47.054Z,3.62
2019-05-30T10:58:15.994Z,2.83
2019-05-30T11:00:49.401Z,2.77
2019-05-30T11:03:19.638Z,3.40
2019-05-30T11:05:51.434Z,3.30
2019-05-30T11:08:21.637Z,3.00
2019-05-30T11:10:50.649Z,3.17
2019-05-30T11:13:19.402Z,3.37
2019-05-30T11:15:48.722Z,3.33
2019-05-30T11:18:18.447Z,2.80
2019-05-30T11:20:47.871Z,2.70
2019-05-30T11:23:16.445Z,2.53
2019-05-30T11:25:44.995Z,2.63
2019-05-30T11:28:13.543Z,2.50
2019-05-30T11:30:42.112Z,2.73
2019-05-30T11:33:10.613Z,2.33
2019-05-30T11:35:39.179Z,2.30
2019-05-30T11:38:07.688Z,2.37
2019-05-30T11:40:36.146Z,2.33
2019-05-30T11:43:04.733Z,2.13
2019-05-30T11:45:33.266Z,2.03
2019-05-30T11:48:01.814Z,1.57
2019-05-30T11:50:30.397Z,1.33
2019-05-30T11:53:00.144Z,1.40
2019-05-30T11:55:28.906Z,1.40
2019-05-30T11:57:58.355Z,1.23
2019-05-30T12:00:27.483Z,1.27
2019-05-30T12:02:56.482Z,1.43
2019-05-30T12:05:25.164Z,1.40
2019-05-30T12:07:54.858Z,1.43
2019-05-30T12:10:23.926Z,1.43
2019-05-30T12:12:53.267Z,1.17
2019-05-30T12:15:22.305Z,1.23
2019-05-30T12:17:51.199Z,1.50
2019-05-30T12:20:20.960Z,1.30
2019-05-30T12:22:49.799Z,1.50
2019-05-30T12:25:18.642Z,1.43
2019-05-30T12:27:47.298Z,1.40
2019-05-30T12:30:16.119Z,1.63
2019-05-30T12:32:44.774Z,1.53
2019-05-30T12:35:13.565Z,1.43
2019-05-30T12:37:54.061Z,1.40
2019-05-30T12:40:12.412Z,2.10
2019-05-30T12:42:40.923Z,1.60
2019-05-30T12:45:09.970Z,1.30
2019-05-30T12:47:38.617Z,1.50
2019-05-30T12:50:08.684Z,1.30
2019-05-30T12:52:37.302Z,1.37
2019-05-30T12:55:06.846Z,1.50
2019-05-30T12:57:35.494Z,1.27
2019-05-30T13:00:13.981Z,1.27
2019-05-30T13:02:34.767Z,1.10
2019-05-30T13:05:03.402Z,1.27
2019-05-30T13:07:31.998Z,1.27
2019-05-30T13:10:01.353Z,1.20
2019-05-30T13:12:30.145Z,1.10
2019-05-30T13:14:59.603Z,1.47
2019-05-30T13:17:28.401Z,1.17
2019-05-30T13:19:57.034Z,1.10
2019-05-30T13:22:25.581Z,1.70
2019-05-30T13:24:55.428Z,1.50
2019-05-30T13:27:24.209Z,1.40
2019-05-30T13:29:52.750Z,1.77
2019-05-30T13:32:21.303Z,1.50
2019-05-30T13:34:49.856Z,1.30
2019-05-30T13:37:18.420Z,1.37
2019-05-30T13:39:47.003Z,1.30
2019-05-30T13:42:15.562Z,1.20
2019-05-30T13:44:44.125Z,1.20
2019-05-30T13:47:12.685Z,1.20
2019-05-30T13:49:41.301Z,1.20
2019-05-30T13:52:09.879Z,1.20
2019-05-30T13:54:38.473Z,1.40
2019-05-30T13:57:07.819Z,1.50
2019-05-30T13:59:36.573Z,1.50
2019-05-30T14:02:06.026Z,1.37
2019-05-30T14:04:34.634Z,1.37
2019-05-30T14:07:04.168Z,1.50
2019-05-30T14:09:32.972Z,1.37
2019-05-30T14:12:02.425Z,1.60
2019-05-30T14:14:31.300Z,1.57
2019-05-30T14:17:00.867Z,1.67
2019-05-30T14:19:29.820Z,1.50
2019-05-30T14:21:58.300Z,1.83
2019-05-30T14:24:27.293Z,1.50
2019-05-30T14:26:56.776Z,1.47
2019-05-30T14:29:27.944Z,1.67
2019-05-30T14:31:55.438Z,1.60
2019-05-30T14:34:24.100Z,1.30
2019-05-30T14:36:52.643Z,1.60
2019-05-30T14:39:21.191Z,1.43
2019-05-30T14:41:49.828Z,1.63
2019-05-30T14:44:18.456Z,1.90
2019-05-30T14:46:47.054Z,1.87
2019-05-30T14:49:17.243Z,1.77
2019-05-30T14:51:47.014Z,1.70
2019-05-30T14:54:15.530Z,1.90
2019-05-30T14:56:44.137Z,1.50
2019-05-30T14:59:13.177Z,1.60
2019-05-30T15:01:41.809Z,1.85
2019-05-30T15:04:11.311Z,1.60
2019-05-30T15:06:40.128Z,1.62
2019-05-30T15:09:20.208Z,1.60
2019-05-30T15:11:39.006Z,1.70
2019-05-30T15:14:08.682Z,1.90
2019-05-30T15:16:37.414Z,1.70
2019-05-30T15:19:06.373Z,1.87
2019-05-30T15:21:35.091Z,1.85
2019-05-30T15:24:03.637Z,1.65
2019-05-30T15:26:32.245Z,1.92
2019-05-30T15:29:00.886Z,1.72
2019-05-30T15:31:29.482Z,1.77
2019-05-30T15:33:58.186Z,1.60
2019-05-30T15:36:26.811Z,1.75
2019-05-30T15:38:55.318Z,1.80
2019-05-30T15:41:23.782Z,1.77
2019-05-30T15:43:52.385Z,1.60
2019-05-30T15:46:20.942Z,1.90
2019-05-30T15:48:49.429Z,1.80
2019-05-30T15:51:18.849Z,1.70
2019-05-30T15:53:48.683Z,1.67
2019-05-30T15:56:17.918Z,1.57
2019-05-30T15:58:46.552Z,1.90
2019-05-30T16:01:15.973Z,1.80
2019-05-30T16:03:44.662Z,1.60
2019-05-30T16:06:14.421Z,1.80
2019-05-30T16:08:45.563Z,1.60
2019-05-30T16:11:13.461Z,1.70
2019-05-30T16:13:42.061Z,1.80
2019-05-30T16:16:11.491Z,1.70
2019-05-30T16:18:40.313Z,1.70
2019-05-30T16:21:13.041Z,1.90
2019-05-30T16:23:40.687Z,1.72
2019-05-30T16:26:09.187Z,1.90
2019-05-30T16:28:37.870Z,1.75
2019-05-30T16:31:06.505Z,1.80
2019-05-30T16:33:34.998Z,1.82
2019-05-30T16:36:03.631Z,1.87
2019-05-30T16:38:32.219Z,1.82
2019-05-30T16:41:00.860Z,1.90
2019-05-30T16:43:29.432Z,1.80
2019-05-30T16:45:58.313Z,1.77
2019-05-30T16:48:26.871Z,1.70
2019-05-30T16:50:55.495Z,1.80
2019-05-30T16:53:25.787Z,1.70
2019-05-30T16:55:54.327Z,1.40
2019-05-30T16:58:23.799Z,1.70
2019-05-30T17:00:52.538Z,1.67
2019-05-30T17:03:21.928Z,1.60
2019-05-30T17:05:52.308Z,1.70
2019-05-30T17:08:20.782Z,1.80
2019-05-30T17:10:49.347Z,1.82
2019-05-30T17:13:17.820Z,1.95
2019-05-30T17:15:46.482Z,1.70
2019-05-30T17:18:16.006Z,1.77
2019-05-30T17:20:44.795Z,1.60
2019-05-30T17:23:13.304Z,1.50
2019-05-30T17:25:41.818Z,1.60
2019-05-30T17:28:10.450Z,1.60
2019-05-30T17:30:39.025Z,1.82
2019-05-30T17:33:07.648Z,1.67
2019-05-30T17:35:36.329Z,1.60
2019-05-30T17:38:04.916Z,1.70
2019-05-30T17:40:43.679Z,1.67
2019-05-30T17:43:03.869Z,1.60
2019-05-30T17:45:32.511Z,1.60
2019-05-30T17:48:15.496Z,1.50
2019-05-30T17:50:31.461Z,1.40
2019-05-30T17:53:00.005Z,1.40
2019-05-30T17:55:28.554Z,1.40
2019-05-30T17:57:57.188Z,1.60
2019-05-30T18:00:26.437Z,1.32
2019-05-30T18:02:55.095Z,1.53
2019-05-30T18:05:24.837Z,1.40
2019-05-30T18:07:53.434Z,1.40
2019-05-30T18:10:22.750Z,1.42
2019-05-30T18:12:51.516Z,1.45
2019-05-30T18:15:21.004Z,1.37
2019-05-30T18:17:50.440Z,1.47
2019-05-30T18:20:19.181Z,1.47
2019-05-30T18:22:47.811Z,1.70
2019-05-30T18:25:17.906Z,1.80
2019-05-30T18:27:46.603Z,1.60
2019-05-30T18:30:16.791Z,1.50
2019-05-30T18:32:45.610Z,1.50
2019-05-30T18:35:14.273Z,1.50
2019-05-30T18:37:42.925Z,1.50
2019-05-30T18:40:11.561Z,1.50
2019-05-30T18:42:40.132Z,1.70
2019-05-30T18:45:08.815Z,1.50
2019-05-30T18:47:37.451Z,1.70
2019-05-30T18:50:06.174Z,1.70
2019-05-30T18:52:34.734Z,1.62
2019-05-30T18:55:05.298Z,1.98
2019-05-30T18:57:33.871Z,1.63
2019-05-30T19:00:03.224Z,1.40
2019-05-30T19:02:33.352Z,1.67
2019-05-30T19:05:02.134Z,1.42
2019-05-30T19:07:31.350Z,1.50
2019-05-30T19:09:59.882Z,1.72
2019-05-30T19:12:28.492Z,1.80
2019-05-30T19:14:57.083Z,1.50
2019-05-30T19:17:25.655Z,1.50
2019-05-30T19:19:54.251Z,1.60
2019-05-30T19:22:22.866Z,1.70
2019-05-30T19:24:51.458Z,1.70
2019-05-30T19:27:20.086Z,1.65
2019-05-30T19:29:48.695Z,1.55
2019-05-30T19:32:17.384Z,1.37
2019-05-30T19:34:46.274Z,1.65
2019-05-30T19:37:14.846Z,1.70
2019-05-30T19:39:44.475Z,1.90
2019-05-30T19:42:12.985Z,1.60
2019-05-30T19:44:41.762Z,1.70
2019-05-30T19:47:10.684Z,1.90
2019-05-30T19:49:39.310Z,1.90
2019-05-30T19:52:07.895Z,2.00
2019-05-30T19:54:37.173Z,1.75
2019-05-30T19:57:06.231Z,1.75
2019-05-30T19:59:36.185Z,1.80
2019-05-30T20:02:05.027Z,1.80
2019-05-30T20:04:34.237Z,1.70
2019-05-30T20:07:02.950Z,1.75
2019-05-30T20:09:32.449Z,1.90
2019-05-30T20:12:04.871Z,1.90
2019-05-30T20:14:31.565Z,2.30
2019-05-30T20:17:00.214Z,2.33
2019-05-30T20:19:28.873Z,2.40
2019-05-30T20:21:57.521Z,1.98
2019-05-30T20:24:26.144Z,2.10
2019-05-30T20:26:54.706Z,2.20
2019-05-30T20:29:23.319Z,2.00
2019-05-30T20:31:51.904Z,1.95
2019-05-30T20:34:20.492Z,1.80
2019-05-30T20:36:49.106Z,1.92
2019-05-30T20:39:17.663Z,1.60
2019-05-30T20:41:47.220Z,1.65
2019-05-30T20:44:15.896Z,1.80
2019-05-30T20:46:44.486Z,1.80
2019-05-30T20:49:13.116Z,1.90
2019-05-30T20:51:43.308Z,1.90
2019-05-30T20:54:12.125Z,1.90
2019-05-30T20:56:41.461Z,1.75
2019-05-30T20:59:10.545Z,2.00
2019-05-30T21:01:39.664Z,1.70
2019-05-30T21:04:08.414Z,1.90
2019-05-30T21:06:36.893Z,2.00
2019-05-30T21:09:06.373Z,1.77
2019-05-30T21:11:36.061Z,1.92
2019-05-30T21:14:04.916Z,2.10
2019-05-30T21:16:33.859Z,2.10
2019-05-30T21:19:02.456Z,1.90
2019-05-30T21:21:31.042Z,2.43
2019-05-30T21:23:59.599Z,2.40
2019-05-30T21:26:28.156Z,1.93
2019-05-30T21:28:56.797Z,2.30
2019-05-30T21:31:25.342Z,2.20
2019-05-30T21:33:54.129Z,2.10
2019-05-30T21:36:26.352Z,1.90
2019-05-30T21:38:53.165Z,1.97
2019-05-30T21:41:21.659Z,1.80
2019-05-30T21:43:50.234Z,1.90
2019-05-30T21:46:18.933Z,2.10
2019-05-30T21:48:47.559Z,2.90
2019-05-30T21:51:16.155Z,2.37
2019-05-30T21:53:45.663Z,1.93
2019-05-30T21:56:14.384Z,2.00
2019-05-30T21:58:44.081Z,1.93
2019-05-30T22:01:31.873Z,1.90
2019-05-30T22:04:00.626Z,2.10
2019-05-30T22:06:29.182Z,2.20
2019-05-30T22:08:57.831Z,2.20
2019-05-30T22:11:26.372Z,2.00
2019-05-30T22:13:55.006Z,2.33
2019-05-30T22:16:23.532Z,2.35
2019-05-30T22:18:52.308Z,2.02
2019-05-30T22:21:20.957Z,1.90
2019-05-30T22:23:50.312Z,1.90
2019-05-30T22:26:18.959Z,2.12
2019-05-30T22:28:48.403Z,2.00
2019-05-30T22:31:17.134Z,2.10
2019-05-30T22:33:46.621Z,2.00
2019-05-30T22:36:15.254Z,2.08
2019-05-30T22:38:44.922Z,1.90
2019-05-30T22:41:13.378Z,2.00
2019-05-30T22:43:41.946Z,2.00
2019-05-30T22:46:10.438Z,2.17
2019-05-30T22:48:39.111Z,1.85
2019-05-30T22:51:08.574Z,2.12
2019-05-30T22:53:37.178Z,2.10
2019-05-30T22:56:05.774Z,2.10
2019-05-30T22:58:34.464Z,2.10
2019-05-30T23:01:03.101Z,1.98
2019-05-30T23:03:31.639Z,2.15
2019-05-30T23:06:00.223Z,2.10
2019-05-30T23:08:30.558Z,2.00
2019-05-30T23:10:59.043Z,2.10
2019-05-30T23:13:40.171Z,2.00
2019-05-30T23:15:58.810Z,2.12
2019-05-30T23:18:27.401Z,2.08
2019-05-30T23:20:56.935Z,2.15
2019-05-30T23:23:25.477Z,2.08
2019-05-30T23:25:54.011Z,2.10
2019-05-30T23:28:22.496Z,2.10
2019-05-30T23:30:51.970Z,2.33
2019-05-30T23:33:20.650Z,2.15
2019-05-30T23:35:50.175Z,2.35
2019-05-30T23:38:18.874Z,2.20
2019-05-30T23:40:48.826Z,2.30
2019-05-30T23:43:17.502Z,1.95
2019-05-30T23:45:46.072Z,2.25
2019-05-30T23:48:14.672Z,2.02
2019-05-30T23:50:43.130Z,2.20
2019-05-30T23:53:11.617Z,2.50
2019-05-30T23:55:40.232Z,2.10
2019-05-30T23:58:08.822Z,2.23
